sensor_id;sensor_type;location;lat;lon;timestamp;temperature;humidity
17007;DHT22;8620;51.168;4.154;2023-08-08T07:01:29;16.10;99.90
17007;DHT22;8620;51.168;4.154;2023-08-08T07:04:01;15.80;99.90
17007;DHT22;8620;51.168;4.154;2023-08-08T07:06:37;15.80;99.90
17007;DHT22;8620;51.168;4.154;2023-08-08T07:09:14;15.90;99.90
17007;DHT22;8620;51.168;4.154;2023-08-08T07:11:54;15.80;99.90
17007;DHT22;8620;51.168;4.154;2023-08-08T07:14:28;15.90;99.90
17007;DHT22;8620;51.168;4.154;2023-08-08T07:17:06;16.00;99.90
17007;DHT22;8620;51.168;4.154;2023-08-08T07:19:43;15.80;99.90
17007;DHT22;8620;51.168;4.154;2023-08-08T07:22:17;15.90;99.90
17007;DHT22;8620;51.168;4.154;2023-08-08T07:24:46;15.80;99.90
17007;DHT22;8620;51.168;4.154;2023-08-08T07:27:18;15.90;99.90
17007;DHT22;8620;51.168;4.154;2023-08-08T07:29:55;15.90;99.90
17007;DHT22;8620;51.168;4.154;2023-08-08T07:32:32;16.10;99.90
17007;DHT22;8620;51.168;4.154;2023-08-08T07:35:04;16.00;99.90
17007;DHT22;8620;51.168;4.154;2023-08-08T07:37:46;16.10;99.90
17007;DHT22;8620;51.168;4.154;2023-08-08T07:40:26;16.10;99.90
17007;DHT22;8620;51.168;4.154;2023-08-08T07:42:59;16.10;99.90
17007;DHT22;8620;51.168;4.154;2023-08-08T07:45:30;16.20;99.90
17007;DHT22;8620;51.168;4.154;2023-08-08T07:48:03;16.20;99.90
17007;DHT22;8620;51.168;4.154;2023-08-08T07:50:38;16.30;99.90
17007;DHT22;8620;51.168;4.154;2023-08-08T07:53:15;16.40;99.90
17007;DHT22;8620;51.168;4.154;2023-08-08T07:55:49;16.40;99.90
17007;DHT22;8620;51.168;4.154;2023-08-08T07:58:23;16.30;99.90
17007;DHT22;8620;51.168;4.154;2023-08-08T08:00:55;16.40;99.90
17007;DHT22;8620;51.168;4.154;2023-08-08T08:03:30;16.70;99.90
17007;DHT22;8620;51.168;4.154;2023-08-08T08:06:04;16.50;99.90
17007;DHT22;8620;51.168;4.154;2023-08-08T08:08:36;16.50;99.90
17007;DHT22;8620;51.168;4.154;2023-08-08T08:11:12;16.40;99.90
17007;DHT22;8620;51.168;4.154;2023-08-08T08:13:50;16.40;99.90
17007;DHT22;8620;51.168;4.154;2023-08-08T08:16:26;16.60;99.90
17007;DHT22;8620;51.168;4.154;2023-08-08T08:18:55;16.40;99.90
17007;DHT22;8620;51.168;4.154;2023-08-08T08:21:21;16.50;99.90
17007;DHT22;8620;51.168;4.154;2023-08-08T08:23:52;16.60;99.90
17007;DHT22;8620;51.168;4.154;2023-08-08T08:26:26;16.60;99.90
17007;DHT22;8620;51.168;4.154;2023-08-08T08:28:58;16.60;99.90
17007;DHT22;8620;51.168;4.154;2023-08-08T08:31:32;16.30;99.90
17007;DHT22;8620;51.168;4.154;2023-08-08T08:34:01;16.50;99.90
17007;DHT22;8620;51.168;4.154;2023-08-08T08:36:30;16.80;99.90
17007;DHT22;8620;51.168;4.154;2023-08-08T08:39:04;16.80;99.90
17007;DHT22;8620;51.168;4.154;2023-08-08T08:41:35;16.50;99.90
17007;DHT22;8620;51.168;4.154;2023-08-08T08:44:08;16.80;99.90
17007;DHT22;8620;51.168;4.154;2023-08-08T08:46:50;16.60;99.90
17007;DHT22;8620;51.168;4.154;2023-08-08T08:49:18;16.60;99.90
17007;DHT22;8620;51.168;4.154;2023-08-08T08:51:52;16.60;99.90
17007;DHT22;8620;51.168;4.154;2023-08-08T08:54:28;16.70;99.90
17007;DHT22;8620;51.168;4.154;2023-08-08T08:57:01;17.00;99.90
17007;DHT22;8620;51.168;4.154;2023-08-08T08:59:34;17.20;99.90
17007;DHT22;8620;51.168;4.154;2023-08-08T09:02:06;17.20;99.90
17007;DHT22;8620;51.168;4.154;2023-08-08T09:04:37;17.20;99.90
17007;DHT22;8620;51.168;4.154;2023-08-08T09:07:14;17.30;99.90
17007;DHT22;8620;51.168;4.154;2023-08-08T09:09:53;17.50;99.90
17007;DHT22;8620;51.168;4.154;2023-08-08T09:12:25;17.30;99.90
17007;DHT22;8620;51.168;4.154;2023-08-08T09:15:08;17.60;99.90
17007;DHT22;8620;51.168;4.154;2023-08-08T09:17:47;17.80;99.90
17007;DHT22;8620;51.168;4.154;2023-08-08T09:20:22;17.70;99.90
17007;DHT22;8620;51.168;4.154;2023-08-08T09:23:01;17.80;99.90
17007;DHT22;8620;51.168;4.154;2023-08-08T09:25:41;18.10;99.90
17007;DHT22;8620;51.168;4.154;2023-08-08T09:28:10;18.50;99.90
17007;DHT22;8620;51.168;4.154;2023-08-08T09:30:42;18.20;99.90
17007;DHT22;8620;51.168;4.154;2023-08-08T09:33:13;18.10;99.90
17007;DHT22;8620;51.168;4.154;2023-08-08T09:35:53;18.40;99.90
17007;DHT22;8620;51.168;4.154;2023-08-08T09:38:28;18.90;99.90
17007;DHT22;8620;51.168;4.154;2023-08-08T09:40:54;19.20;99.90
17007;DHT22;8620;51.168;4.154;2023-08-08T09:43:33;19.80;99.90
17007;DHT22;8620;51.168;4.154;2023-08-08T09:46:00;20.20;99.90
17007;DHT22;8620;51.168;4.154;2023-08-08T09:48:42;19.90;99.90
17007;DHT22;8620;51.168;4.154;2023-08-08T09:51:14;20.20;99.90
17007;DHT22;8620;51.168;4.154;2023-08-08T09:53:49;20.30;99.90
17007;DHT22;8620;51.168;4.154;2023-08-08T09:56:23;19.60;99.90
17007;DHT22;8620;51.168;4.154;2023-08-08T09:58:49;19.40;99.90
17007;DHT22;8620;51.168;4.154;2023-08-08T10:01:15;19.80;99.90
17007;DHT22;8620;51.168;4.154;2023-08-08T10:03:51;20.10;99.90
17007;DHT22;8620;51.168;4.154;2023-08-08T10:06:28;19.70;99.90
17007;DHT22;8620;51.168;4.154;2023-08-08T10:08:57;19.50;99.90
17007;DHT22;8620;51.168;4.154;2023-08-08T10:11:27;19.70;99.90
17007;DHT22;8620;51.168;4.154;2023-08-08T10:14:02;19.40;99.90
17007;DHT22;8620;51.168;4.154;2023-08-08T10:16:38;19.40;99.90
17007;DHT22;8620;51.168;4.154;2023-08-08T10:19:07;19.30;99.90
17007;DHT22;8620;51.168;4.154;2023-08-08T10:33:48;18.40;99.90
17007;DHT22;8620;51.168;4.154;2023-08-08T10:36:18;18.70;99.90
17007;DHT22;8620;51.168;4.154;2023-08-08T10:38:57;18.60;99.90
17007;DHT22;8620;51.168;4.154;2023-08-08T10:41:27;18.60;99.90
17007;DHT22;8620;51.168;4.154;2023-08-08T10:43:58;18.70;99.90
17007;DHT22;8620;51.168;4.154;2023-08-08T10:46:32;18.70;99.90
17007;DHT22;8620;51.168;4.154;2023-08-08T10:49:06;18.50;99.90
17007;DHT22;8620;51.168;4.154;2023-08-08T10:51:47;18.60;99.90
17007;DHT22;8620;51.168;4.154;2023-08-08T10:54:32;18.80;99.90
17007;DHT22;8620;51.168;4.154;2023-08-08T10:57:02;18.90;99.90
17007;DHT22;8620;51.168;4.154;2023-08-08T10:59:39;18.90;99.90
17007;DHT22;8620;51.168;4.154;2023-08-08T11:02:15;19.20;99.90
17007;DHT22;8620;51.168;4.154;2023-08-08T11:04:48;19.70;99.90
17007;DHT22;8620;51.168;4.154;2023-08-08T11:07:18;20.60;99.90
17007;DHT22;8620;51.168;4.154;2023-08-08T11:09:44;20.60;99.90
17007;DHT22;8620;51.168;4.154;2023-08-08T11:12:16;19.90;99.90
17007;DHT22;8620;51.168;4.154;2023-08-08T11:14:42;19.50;99.90
17007;DHT22;8620;51.168;4.154;2023-08-08T11:17:11;19.00;99.90
17007;DHT22;8620;51.168;4.154;2023-08-08T11:19:41;18.90;99.90
17007;DHT22;8620;51.168;4.154;2023-08-08T11:22:13;18.70;99.90
17007;DHT22;8620;51.168;4.154;2023-08-08T11:24:38;18.40;99.90
17007;DHT22;8620;51.168;4.154;2023-08-08T11:27:10;18.40;99.90
17007;DHT22;8620;51.168;4.154;2023-08-08T11:29:48;18.40;99.90
17007;DHT22;8620;51.168;4.154;2023-08-08T11:32:17;18.40;99.90
17007;DHT22;8620;51.168;4.154;2023-08-08T11:34:46;18.70;99.90
17007;DHT22;8620;51.168;4.154;2023-08-08T11:37:16;19.60;99.90
17007;DHT22;8620;51.168;4.154;2023-08-08T11:39:45;19.30;99.90
17007;DHT22;8620;51.168;4.154;2023-08-08T11:42:11;19.70;99.90
17007;DHT22;8620;51.168;4.154;2023-08-08T11:44:45;19.60;99.90
17007;DHT22;8620;51.168;4.154;2023-08-08T11:47:16;19.90;99.90
17007;DHT22;8620;51.168;4.154;2023-08-08T11:49:52;21.00;99.90
17007;DHT22;8620;51.168;4.154;2023-08-08T11:52:27;21.10;99.90
17007;DHT22;8620;51.168;4.154;2023-08-08T11:54:58;22.20;99.90
17007;DHT22;8620;51.168;4.154;2023-08-08T11:57:40;21.50;99.90
17007;DHT22;8620;51.168;4.154;2023-08-08T12:00:10;20.10;99.90
17007;DHT22;8620;51.168;4.154;2023-08-08T12:02:45;19.60;99.90
17007;DHT22;8620;51.168;4.154;2023-08-08T12:05:15;19.00;99.90
17007;DHT22;8620;51.168;4.154;2023-08-08T12:07:47;19.00;99.90
17007;DHT22;8620;51.168;4.154;2023-08-08T12:10:19;19.30;99.90
17007;DHT22;8620;51.168;4.154;2023-08-08T12:12:57;19.30;99.90
17007;DHT22;8620;51.168;4.154;2023-08-08T12:15:37;19.80;99.90
17007;DHT22;8620;51.168;4.154;2023-08-08T12:18:15;20.50;99.90
17007;DHT22;8620;51.168;4.154;2023-08-08T12:20:48;21.40;99.90
17007;DHT22;8620;51.168;4.154;2023-08-08T12:23:19;21.30;99.90
17007;DHT22;8620;51.168;4.154;2023-08-08T12:25:57;20.80;99.90
17007;DHT22;8620;51.168;4.154;2023-08-08T12:28:31;21.30;99.90
17007;DHT22;8620;51.168;4.154;2023-08-08T12:30:58;21.00;99.90
17007;DHT22;8620;51.168;4.154;2023-08-08T12:33:27;20.20;99.90
17007;DHT22;8620;51.168;4.154;2023-08-08T12:36:01;20.70;99.90
17007;DHT22;8620;51.168;4.154;2023-08-08T12:38:32;21.20;99.90
17007;DHT22;8620;51.168;4.154;2023-08-08T12:41:04;21.10;99.90
17007;DHT22;8620;51.168;4.154;2023-08-08T12:43:35;20.90;99.90
17007;DHT22;8620;51.168;4.154;2023-08-08T12:46:09;21.30;99.90
17007;DHT22;8620;51.168;4.154;2023-08-08T12:48:40;20.80;99.90
17007;DHT22;8620;51.168;4.154;2023-08-08T12:51:17;21.10;99.90
17007;DHT22;8620;51.168;4.154;2023-08-08T12:53:44;21.40;99.90
17007;DHT22;8620;51.168;4.154;2023-08-08T12:56:15;21.00;99.90
17007;DHT22;8620;51.168;4.154;2023-08-08T12:58:47;20.60;99.90
17007;DHT22;8620;51.168;4.154;2023-08-08T13:01:21;20.40;99.90
17007;DHT22;8620;51.168;4.154;2023-08-08T13:03:52;21.10;99.90
17007;DHT22;8620;51.168;4.154;2023-08-08T13:06:24;21.60;99.90
17007;DHT22;8620;51.168;4.154;2023-08-08T13:08:58;21.20;99.90
17007;DHT22;8620;51.168;4.154;2023-08-08T13:11:29;21.00;99.90
17007;DHT22;8620;51.168;4.154;2023-08-08T13:14:01;20.80;99.90
17007;DHT22;8620;51.168;4.154;2023-08-08T13:16:35;21.00;99.90
17007;DHT22;8620;51.168;4.154;2023-08-08T13:19:07;21.50;99.90
17007;DHT22;8620;51.168;4.154;2023-08-08T13:21:42;21.10;99.90
17007;DHT22;8620;51.168;4.154;2023-08-08T13:24:16;20.90;99.90
17007;DHT22;8620;51.168;4.154;2023-08-08T13:26:46;20.70;99.90
17007;DHT22;8620;51.168;4.154;2023-08-08T13:29:15;20.80;99.90
17007;DHT22;8620;51.168;4.154;2023-08-08T13:31:46;20.70;99.90
17007;DHT22;8620;51.168;4.154;2023-08-08T13:34:18;20.60;99.90
17007;DHT22;8620;51.168;4.154;2023-08-08T13:36:49;21.10;99.90
17007;DHT22;8620;51.168;4.154;2023-08-08T13:39:26;21.00;99.90
17007;DHT22;8620;51.168;4.154;2023-08-08T13:41:55;20.90;99.90
17007;DHT22;8620;51.168;4.154;2023-08-08T13:44:32;20.60;99.90
17007;DHT22;8620;51.168;4.154;2023-08-08T13:47:08;20.50;99.90
17007;DHT22;8620;51.168;4.154;2023-08-08T13:49:38;20.60;99.90
17007;DHT22;8620;51.168;4.154;2023-08-08T13:52:04;20.90;99.90
17007;DHT22;8620;51.168;4.154;2023-08-08T13:54:41;21.00;99.90
17007;DHT22;8620;51.168;4.154;2023-08-08T13:57:12;21.00;99.90
17007;DHT22;8620;51.168;4.154;2023-08-08T13:59:47;20.80;99.90
17007;DHT22;8620;51.168;4.154;2023-08-08T14:02:23;21.00;99.90
17007;DHT22;8620;51.168;4.154;2023-08-08T14:04:55;20.70;99.90
17007;DHT22;8620;51.168;4.154;2023-08-08T14:07:29;20.40;99.90
17007;DHT22;8620;51.168;4.154;2023-08-08T14:10:03;20.20;99.90
17007;DHT22;8620;51.168;4.154;2023-08-08T14:12:35;20.10;99.90
17007;DHT22;8620;51.168;4.154;2023-08-08T14:15:15;20.20;99.90
17007;DHT22;8620;51.168;4.154;2023-08-08T14:17:51;20.30;99.90
17007;DHT22;8620;51.168;4.154;2023-08-08T14:20:31;20.40;99.90
17007;DHT22;8620;51.168;4.154;2023-08-08T14:23:03;20.50;99.90
17007;DHT22;8620;51.168;4.154;2023-08-08T14:25:41;20.40;99.90
17007;DHT22;8620;51.168;4.154;2023-08-08T14:28:17;20.50;99.90
17007;DHT22;8620;51.168;4.154;2023-08-08T14:30:49;20.30;99.90
17007;DHT22;8620;51.168;4.154;2023-08-08T14:33:23;20.60;99.90
17007;DHT22;8620;51.168;4.154;2023-08-08T14:35:54;20.40;99.90
17007;DHT22;8620;51.168;4.154;2023-08-08T14:38:34;20.50;99.90
17007;DHT22;8620;51.168;4.154;2023-08-08T14:41:10;20.20;99.90
17007;DHT22;8620;51.168;4.154;2023-08-08T14:43:47;20.10;99.90
17007;DHT22;8620;51.168;4.154;2023-08-08T14:46:18;19.90;99.90
17007;DHT22;8620;51.168;4.154;2023-08-08T14:48:55;19.80;99.90
17007;DHT22;8620;51.168;4.154;2023-08-08T14:51:29;20.00;99.90
17007;DHT22;8620;51.168;4.154;2023-08-08T14:54:00;20.10;99.90
17007;DHT22;8620;51.168;4.154;2023-08-08T14:56:30;19.90;99.90
17007;DHT22;8620;51.168;4.154;2023-08-08T14:59:04;20.00;99.90
17007;DHT22;8620;51.168;4.154;2023-08-08T15:01:35;20.40;99.90
17007;DHT22;8620;51.168;4.154;2023-08-08T15:04:09;20.40;99.90
17007;DHT22;8620;51.168;4.154;2023-08-08T15:06:46;20.20;99.90
17007;DHT22;8620;51.168;4.154;2023-08-08T15:09:21;19.80;99.90
17007;DHT22;8620;51.168;4.154;2023-08-08T15:11:52;19.60;99.90
17007;DHT22;8620;51.168;4.154;2023-08-08T15:14:23;19.30;99.90
17007;DHT22;8620;51.168;4.154;2023-08-08T15:17:02;19.10;99.90
17007;DHT22;8620;51.168;4.154;2023-08-08T15:19:36;19.00;99.90
17007;DHT22;8620;51.168;4.154;2023-08-08T15:22:13;18.80;99.90
17007;DHT22;8620;51.168;4.154;2023-08-08T15:24:51;18.60;99.90
17007;DHT22;8620;51.168;4.154;2023-08-08T15:27:25;18.80;99.90
17007;DHT22;8620;51.168;4.154;2023-08-08T15:29:57;18.70;99.90
17007;DHT22;8620;51.168;4.154;2023-08-08T15:32:26;18.80;99.90
17007;DHT22;8620;51.168;4.154;2023-08-08T15:34:57;18.70;99.90
17007;DHT22;8620;51.168;4.154;2023-08-08T15:37:39;18.90;99.90
17007;DHT22;8620;51.168;4.154;2023-08-08T15:40:13;19.00;99.90
17007;DHT22;8620;51.168;4.154;2023-08-08T15:42:47;19.20;99.90
17007;DHT22;8620;51.168;4.154;2023-08-08T15:45:27;19.20;99.90
17007;DHT22;8620;51.168;4.154;2023-08-08T15:48:01;19.00;99.90
17007;DHT22;8620;51.168;4.154;2023-08-08T15:50:32;19.00;99.90
17007;DHT22;8620;51.168;4.154;2023-08-08T15:53:06;18.80;99.90
17007;DHT22;8620;51.168;4.154;2023-08-08T15:55:42;18.90;99.90
17007;DHT22;8620;51.168;4.154;2023-08-08T15:58:13;18.90;99.90
17007;DHT22;8620;51.168;4.154;2023-08-08T16:00:42;18.80;99.90
17007;DHT22;8620;51.168;4.154;2023-08-08T16:03:16;19.00;99.90
17007;DHT22;8620;51.168;4.154;2023-08-08T16:05:47;18.70;99.90
17007;DHT22;8620;51.168;4.154;2023-08-08T16:08:16;18.70;99.90
17007;DHT22;8620;51.168;4.154;2023-08-08T16:10:45;18.70;99.90
17007;DHT22;8620;51.168;4.154;2023-08-08T16:13:12;18.40;99.90
17007;DHT22;8620;51.168;4.154;2023-08-08T16:15:49;18.20;99.90
17007;DHT22;8620;51.168;4.154;2023-08-08T16:18:20;17.90;99.90
17007;DHT22;8620;51.168;4.154;2023-08-08T16:20:51;18.10;99.90
17007;DHT22;8620;51.168;4.154;2023-08-08T16:23:23;18.40;99.90
17007;DHT22;8620;51.168;4.154;2023-08-08T16:26:03;18.10;99.90
17007;DHT22;8620;51.168;4.154;2023-08-08T16:28:39;18.10;99.90
17007;DHT22;8620;51.168;4.154;2023-08-08T16:31:17;17.90;99.90
17007;DHT22;8620;51.168;4.154;2023-08-08T16:33:51;17.70;99.90
17007;DHT22;8620;51.168;4.154;2023-08-08T16:36:25;17.80;99.90
17007;DHT22;8620;51.168;4.154;2023-08-08T16:38:54;18.10;99.90
17007;DHT22;8620;51.168;4.154;2023-08-08T16:41:30;18.00;99.90
17007;DHT22;8620;51.168;4.154;2023-08-08T16:44:08;17.90;99.90
17007;DHT22;8620;51.168;4.154;2023-08-08T16:46:39;17.70;99.90
17007;DHT22;8620;51.168;4.154;2023-08-08T16:49:17;17.40;99.90
17007;DHT22;8620;51.168;4.154;2023-08-08T16:51:51;17.20;99.90
17007;DHT22;8620;51.168;4.154;2023-08-08T16:54:25;17.10;99.90
17007;DHT22;8620;51.168;4.154;2023-08-08T16:57:04;17.10;99.90
17007;DHT22;8620;51.168;4.154;2023-08-08T16:59:41;17.00;99.90
17007;DHT22;8620;51.168;4.154;2023-08-08T17:02:13;17.20;99.90
17007;DHT22;8620;51.168;4.154;2023-08-08T17:04:49;17.40;99.90
17007;DHT22;8620;51.168;4.154;2023-08-08T17:07:22;17.50;99.90
17007;DHT22;8620;51.168;4.154;2023-08-08T17:09:50;17.10;99.90
17007;DHT22;8620;51.168;4.154;2023-08-08T17:12:24;17.40;99.90
17007;DHT22;8620;51.168;4.154;2023-08-08T17:14:56;17.40;99.90
17007;DHT22;8620;51.168;4.154;2023-08-08T17:17:30;17.20;99.90
17007;DHT22;8620;51.168;4.154;2023-08-08T17:20:02;17.30;99.90
17007;DHT22;8620;51.168;4.154;2023-08-08T17:22:33;17.30;99.90
17007;DHT22;8620;51.168;4.154;2023-08-08T17:25:05;17.20;99.90
17007;DHT22;8620;51.168;4.154;2023-08-08T17:27:34;17.20;99.90
17007;DHT22;8620;51.168;4.154;2023-08-08T17:30:09;16.90;99.90
17007;DHT22;8620;51.168;4.154;2023-08-08T17:32:41;16.60;99.90
17007;DHT22;8620;51.168;4.154;2023-08-08T17:35:17;16.60;99.90
17007;DHT22;8620;51.168;4.154;2023-08-08T17:37:51;16.70;99.90
17007;DHT22;8620;51.168;4.154;2023-08-08T17:40:34;16.60;99.90
17007;DHT22;8620;51.168;4.154;2023-08-08T17:43:03;17.10;99.90
17007;DHT22;8620;51.168;4.154;2023-08-08T17:45:34;17.20;99.90
17007;DHT22;8620;51.168;4.154;2023-08-08T17:48:09;17.40;99.90
17007;DHT22;8620;51.168;4.154;2023-08-08T17:50:43;17.30;99.90
17007;DHT22;8620;51.168;4.154;2023-08-08T17:53:09;16.90;99.90
17007;DHT22;8620;51.168;4.154;2023-08-08T17:55:42;17.10;99.90
17007;DHT22;8620;51.168;4.154;2023-08-08T17:58:11;17.20;99.90
17007;DHT22;8620;51.168;4.154;2023-08-08T18:00:40;17.10;99.90
17007;DHT22;8620;51.168;4.154;2023-08-08T18:03:14;17.10;99.90
17007;DHT22;8620;51.168;4.154;2023-08-08T18:05:50;17.50;99.90
17007;DHT22;8620;51.168;4.154;2023-08-08T18:08:19;17.70;99.90
17007;DHT22;8620;51.168;4.154;2023-08-08T18:10:58;17.80;99.90
17007;DHT22;8620;51.168;4.154;2023-08-08T18:13:25;17.30;99.90
17007;DHT22;8620;51.168;4.154;2023-08-08T18:15:51;17.20;99.90
17007;DHT22;8620;51.168;4.154;2023-08-08T18:18:19;17.10;99.90
17007;DHT22;8620;51.168;4.154;2023-08-08T18:20:54;16.80;99.90
17007;DHT22;8620;51.168;4.154;2023-08-08T18:23:28;16.70;99.90
17007;DHT22;8620;51.168;4.154;2023-08-08T18:25:55;16.50;99.90
17007;DHT22;8620;51.168;4.154;2023-08-08T18:28:20;16.30;99.90
17007;DHT22;8620;51.168;4.154;2023-08-08T18:30:49;16.30;99.90
17007;DHT22;8620;51.168;4.154;2023-08-08T18:33:21;16.50;99.90
17007;DHT22;8620;51.168;4.154;2023-08-08T18:35:55;16.40;99.90
17007;DHT22;8620;51.168;4.154;2023-08-08T18:38:22;16.20;99.90
17007;DHT22;8620;51.168;4.154;2023-08-08T18:40:56;16.10;99.90
17007;DHT22;8620;51.168;4.154;2023-08-08T18:43:26;15.80;99.90
17007;DHT22;8620;51.168;4.154;2023-08-08T18:46:03;15.80;99.90
17007;DHT22;8620;51.168;4.154;2023-08-08T18:48:37;15.60;99.90
17007;DHT22;8620;51.168;4.154;2023-08-08T18:51:06;15.60;99.90
17007;DHT22;8620;51.168;4.154;2023-08-08T18:53:35;15.60;99.90
17007;DHT22;8620;51.168;4.154;2023-08-08T18:56:09;15.70;99.90
17007;DHT22;8620;51.168;4.154;2023-08-08T18:58:43;15.90;99.90
17007;DHT22;8620;51.168;4.154;2023-08-08T19:01:23;15.90;99.90
17007;DHT22;8620;51.168;4.154;2023-08-08T19:03:55;15.80;99.90
17007;DHT22;8620;51.168;4.154;2023-08-08T19:06:37;15.90;99.90
17007;DHT22;8620;51.168;4.154;2023-08-08T19:09:08;16.00;99.90
17007;DHT22;8620;51.168;4.154;2023-08-08T19:11:37;16.00;99.90
17007;DHT22;8620;51.168;4.154;2023-08-08T19:14:09;16.10;99.90
17007;DHT22;8620;51.168;4.154;2023-08-08T19:16:42;16.10;99.90
17007;DHT22;8620;51.168;4.154;2023-08-08T19:19:08;16.00;99.90
17007;DHT22;8620;51.168;4.154;2023-08-08T19:21:41;16.00;99.90
17007;DHT22;8620;51.168;4.154;2023-08-08T19:24:10;16.30;99.90
17007;DHT22;8620;51.168;4.154;2023-08-08T19:26:41;16.40;99.90
17007;DHT22;8620;51.168;4.154;2023-08-08T19:29:09;16.40;99.90
17007;DHT22;8620;51.168;4.154;2023-08-08T19:31:44;16.50;99.90
17007;DHT22;8620;51.168;4.154;2023-08-08T19:34:15;16.70;99.90
17007;DHT22;8620;51.168;4.154;2023-08-08T19:36:44;16.80;99.90
17007;DHT22;8620;51.168;4.154;2023-08-08T19:39:21;16.70;99.90
17007;DHT22;8620;51.168;4.154;2023-08-08T19:41:52;16.90;99.90
17007;DHT22;8620;51.168;4.154;2023-08-08T19:44:26;16.90;99.90
17007;DHT22;8620;51.168;4.154;2023-08-08T19:47:00;16.90;99.90
17007;DHT22;8620;51.168;4.154;2023-08-08T19:49:34;16.70;99.90
17007;DHT22;8620;51.168;4.154;2023-08-08T19:52:06;16.90;99.90
17007;DHT22;8620;51.168;4.154;2023-08-08T19:54:38;17.20;99.90
17007;DHT22;8620;51.168;4.154;2023-08-08T19:57:14;17.00;99.90
17007;DHT22;8620;51.168;4.154;2023-08-08T19:59:46;16.70;99.90
17007;DHT22;8620;51.168;4.154;2023-08-08T20:02:25;16.80;99.90
17007;DHT22;8620;51.168;4.154;2023-08-08T20:05:02;17.10;99.90
17007;DHT22;8620;51.168;4.154;2023-08-08T20:07:38;16.60;99.90
17007;DHT22;8620;51.168;4.154;2023-08-08T20:10:18;16.40;99.90
17007;DHT22;8620;51.168;4.154;2023-08-08T20:12:53;16.40;99.90
17007;DHT22;8620;51.168;4.154;2023-08-08T20:15:27;16.40;99.90
17007;DHT22;8620;51.168;4.154;2023-08-08T20:17:58;16.70;99.90
17007;DHT22;8620;51.168;4.154;2023-08-08T20:20:35;16.60;99.90
17007;DHT22;8620;51.168;4.154;2023-08-08T20:23:11;16.70;99.90
17007;DHT22;8620;51.168;4.154;2023-08-08T20:25:37;16.60;99.90
17007;DHT22;8620;51.168;4.154;2023-08-08T20:28:06;16.90;99.90
17007;DHT22;8620;51.168;4.154;2023-08-08T20:30:38;16.60;99.90
17007;DHT22;8620;51.168;4.154;2023-08-08T20:33:08;16.50;99.90
17007;DHT22;8620;51.168;4.154;2023-08-08T20:35:49;16.70;99.90
17007;DHT22;8620;51.168;4.154;2023-08-08T20:38:28;16.70;99.90
17007;DHT22;8620;51.168;4.154;2023-08-08T20:40:56;16.70;99.90
17007;DHT22;8620;51.168;4.154;2023-08-08T20:43:39;16.60;99.90
17007;DHT22;8620;51.168;4.154;2023-08-08T20:46:14;16.70;99.90
17007;DHT22;8620;51.168;4.154;2023-08-08T20:48:46;16.50;99.90
17007;DHT22;8620;51.168;4.154;2023-08-08T20:51:19;16.20;99.90
17007;DHT22;8620;51.168;4.154;2023-08-08T20:53:50;16.40;99.90
17007;DHT22;8620;51.168;4.154;2023-08-08T20:56:21;16.70;99.90
